createdAt,value
2019-05-17T00:00:42.526Z,7.33
2019-05-17T00:03:17.062Z,7.40
2019-05-17T00:05:48.633Z,7.23
2019-05-17T00:08:30.963Z,8.83
2019-05-17T00:10:53.114Z,8.10
2019-05-17T00:13:26.744Z,8.37
2019-05-17T00:15:57.947Z,10.03
2019-05-17T00:18:29.324Z,8.60
2019-05-17T00:21:00.892Z,9.60
2019-05-17T00:23:32.528Z,9.03
2019-05-17T00:26:04.089Z,7.90
2019-05-17T00:28:37.449Z,9.63
2019-05-17T00:31:08.786Z,8.30
2019-05-17T00:33:40.224Z,10.60
2019-05-17T00:36:11.490Z,9.53
2019-05-17T00:38:48.217Z,11.10
2019-05-17T00:41:17.620Z,9.90
2019-05-17T00:43:49.416Z,10.83
2019-05-17T00:46:20.721Z,10.87
2019-05-17T00:48:52.089Z,9.57
2019-05-17T00:51:27.247Z,9.60
2019-05-17T00:53:58.605Z,10.10
2019-05-17T00:56:30.197Z,10.67
2019-05-17T00:59:01.617Z,10.73
2019-05-17T01:01:33.893Z,10.37
2019-05-17T01:04:06.916Z,9.43
2019-05-17T01:06:38.568Z,10.17
2019-05-17T01:09:09.788Z,9.70
2019-05-17T01:11:41.116Z,11.23
2019-05-17T01:14:12.624Z,11.03
2019-05-17T01:16:44.120Z,10.87
2019-05-17T01:19:16.437Z,11.63
2019-05-17T01:21:48.378Z,10.50
2019-05-17T01:24:19.839Z,11.23
2019-05-17T01:26:51.602Z,11.30
2019-05-17T01:29:23.120Z,11.07
2019-05-17T01:31:56.956Z,12.87
2019-05-17T01:34:27.793Z,12.80
2019-05-17T01:36:59.197Z,9.70
2019-05-17T01:39:33.474Z,10.73
2019-05-17T01:42:04.065Z,10.13
2019-05-17T01:44:36.721Z,12.80
2019-05-17T01:47:08.426Z,9.77
2019-05-17T01:49:39.836Z,10.00
2019-05-17T01:52:11.120Z,8.93
2019-05-17T01:54:42.422Z,8.27
2019-05-17T01:57:13.866Z,8.23
2019-05-17T01:59:46.670Z,9.87
2019-05-17T02:02:27.011Z,8.80
2019-05-17T02:04:58.384Z,6.95
2019-05-17T02:07:29.774Z,6.27
2019-05-17T02:10:01.048Z,9.60
2019-05-17T02:12:32.213Z,6.97
2019-05-17T02:15:06.976Z,6.20
2019-05-17T02:17:38.741Z,5.97
2019-05-17T02:20:10.685Z,6.60
2019-05-17T02:22:42.109Z,7.53
2019-05-17T02:25:13.977Z,7.47
2019-05-17T02:27:45.257Z,7.53
2019-05-17T02:30:17.309Z,6.77
2019-05-17T02:32:48.791Z,7.20
2019-05-17T02:35:22.878Z,6.17
2019-05-17T02:37:53.638Z,8.07
2019-05-17T02:40:25.110Z,10.37
2019-05-17T02:42:56.572Z,7.10
2019-05-17T02:45:28.052Z,9.83
2019-05-17T02:48:03.261Z,8.20
2019-05-17T02:50:33.424Z,8.53
2019-05-17T02:53:05.526Z,5.70
2019-05-17T02:55:37.169Z,8.93
2019-05-17T02:58:08.664Z,10.13
2019-05-17T03:00:43.980Z,8.73
2019-05-17T03:03:13.750Z,12.30
2019-05-17T03:05:45.313Z,11.10
2019-05-17T03:08:16.825Z,9.27
2019-05-17T03:10:48.586Z,10.87
2019-05-17T03:13:23.191Z,8.10
2019-05-17T03:15:53.297Z,8.13
2019-05-17T03:18:24.663Z,8.03
2019-05-17T03:20:56.164Z,6.67
2019-05-17T03:23:27.870Z,7.20
2019-05-17T03:25:59.177Z,7.23
2019-05-17T03:28:33.566Z,7.27
2019-05-17T03:31:08.221Z,7.43
2019-05-17T03:33:37.431Z,7.60
2019-05-17T03:36:08.845Z,8.30
2019-05-17T03:38:43.093Z,5.50
2019-05-17T03:41:23.395Z,9.73
2019-05-17T03:43:47.096Z,6.77
2019-05-17T03:46:18.576Z,10.23
2019-05-17T03:48:52.885Z,8.33
2019-05-17T03:51:23.464Z,8.20
2019-05-17T03:53:55.059Z,8.30
2019-05-17T03:56:26.608Z,13.07
2019-05-17T03:58:57.922Z,10.40
2019-05-17T04:01:32.586Z,10.90
2019-05-17T04:04:03.186Z,9.63
2019-05-17T04:06:34.639Z,11.60
2019-05-17T04:09:06.713Z,9.90
2019-05-17T04:11:38.575Z,9.43
2019-05-17T04:14:13.628Z,10.27
2019-05-17T04:16:43.392Z,10.33
2019-05-17T04:19:14.643Z,8.83
2019-05-17T04:21:45.821Z,7.57
2019-05-17T04:24:17.463Z,10.13
2019-05-17T04:26:52.022Z,9.20
2019-05-17T04:29:22.800Z,9.40
2019-05-17T04:31:54.722Z,13.17
2019-05-17T04:34:26.098Z,8.27
2019-05-17T04:36:57.746Z,7.50
2019-05-17T04:39:29.017Z,9.63
2019-05-17T04:42:03.738Z,9.60
2019-05-17T04:44:35.423Z,8.00
2019-05-17T04:47:06.710Z,10.47
2019-05-17T04:49:38.155Z,7.83
2019-05-17T04:52:09.662Z,6.87
2019-05-17T04:54:42.538Z,7.87
2019-05-17T04:57:14.126Z,7.00
2019-05-17T04:59:45.653Z,6.90
2019-05-17T05:02:19.075Z,9.40
2019-05-17T05:04:53.174Z,8.33
2019-05-17T05:07:24.588Z,10.43
2019-05-17T05:09:55.813Z,7.23
2019-05-17T05:12:28.003Z,7.43
2019-05-17T05:14:59.613Z,6.40
2019-05-17T05:17:32.837Z,6.87
2019-05-17T05:20:05.630Z,7.97
2019-05-17T05:22:37.286Z,6.83
2019-05-17T05:25:08.672Z,6.30
2019-05-17T05:27:42.283Z,7.83
2019-05-17T05:30:13.478Z,8.37
2019-05-17T05:32:44.782Z,8.83
2019-05-17T05:35:16.179Z,7.27
2019-05-17T05:37:47.545Z,5.50
2019-05-17T05:40:18.897Z,7.07
2019-05-17T05:42:51.572Z,6.37
2019-05-17T05:45:23.641Z,6.83
2019-05-17T05:47:55.459Z,10.70
2019-05-17T05:50:27.121Z,6.40
2019-05-17T05:52:58.448Z,5.87
2019-05-17T05:55:32.182Z,7.57
2019-05-17T05:58:03.267Z,7.10
2019-05-17T06:00:34.832Z,7.20
2019-05-17T06:03:06.307Z,7.77
2019-05-17T06:05:37.713Z,7.20
2019-05-17T06:08:09.099Z,8.27
2019-05-17T06:10:42.519Z,8.83
2019-05-17T06:13:14.025Z,9.40
2019-05-17T06:15:45.753Z,10.27
2019-05-17T06:18:17.449Z,9.97
2019-05-17T06:20:49.013Z,10.43
2019-05-17T06:23:20.424Z,11.90
2019-05-17T06:25:52.228Z,9.03
2019-05-17T06:28:24.166Z,10.77
2019-05-17T06:30:55.735Z,8.90
2019-05-17T06:33:31.061Z,11.40
2019-05-17T06:36:02.768Z,10.93
2019-05-17T06:38:34.198Z,8.80
2019-05-17T06:41:05.919Z,11.90
2019-05-17T06:43:38.549Z,9.63
2019-05-17T06:46:12.238Z,15.40
2019-05-17T06:48:43.531Z,8.10
2019-05-17T06:51:15.125Z,10.90
2019-05-17T06:53:46.424Z,8.17
2019-05-17T06:56:18.956Z,8.47
2019-05-17T06:58:50.415Z,8.00
2019-05-17T07:01:21.847Z,7.67
2019-05-17T07:03:53.262Z,9.33
2019-05-17T07:06:26.449Z,7.10
2019-05-17T07:09:00.841Z,6.80
2019-05-17T07:11:31.934Z,5.53
2019-05-17T07:14:03.423Z,8.30
2019-05-17T07:16:34.757Z,8.50
2019-05-17T07:19:06.505Z,6.77
2019-05-17T07:21:40.202Z,6.97
2019-05-17T07:24:11.278Z,8.83
2019-05-17T07:26:42.872Z,7.83
2019-05-17T07:29:14.180Z,8.10
2019-05-17T07:31:45.896Z,5.70
2019-05-17T07:34:17.165Z,6.37
2019-05-17T07:36:50.379Z,6.10
2019-05-17T07:39:22.881Z,7.47
2019-05-17T07:41:54.581Z,9.27
2019-05-17T07:44:25.963Z,5.20
2019-05-17T07:46:57.399Z,6.17
2019-05-17T07:49:29.498Z,6.23
2019-05-17T07:52:01.149Z,4.83
2019-05-17T07:54:32.471Z,9.80
2019-05-17T07:57:03.938Z,5.07
2019-05-17T07:59:35.299Z,5.70
2019-05-17T08:02:06.938Z,4.20
2019-05-17T08:04:40.687Z,6.30
2019-05-17T08:07:11.661Z,5.00
2019-05-17T08:09:43.294Z,4.70
2019-05-17T08:12:15.190Z,5.67
2019-05-17T08:14:46.487Z,9.07
2019-05-17T08:17:19.828Z,5.77
2019-05-17T08:19:51.315Z,8.80
2019-05-17T08:22:22.748Z,7.17
2019-05-17T08:24:54.209Z,7.73
2019-05-17T08:27:25.942Z,7.27
2019-05-17T08:29:59.733Z,7.73
2019-05-17T08:32:31.631Z,12.07
2019-05-17T08:35:04.205Z,6.80
2019-05-17T08:37:36.074Z,4.23
2019-05-17T08:40:10.496Z,7.03
2019-05-17T08:42:41.106Z,6.57
2019-05-17T08:45:12.671Z,9.77
2019-05-17T08:47:44.293Z,7.57
2019-05-17T08:50:15.959Z,8.10
2019-05-17T08:52:49.551Z,6.27
2019-05-17T08:55:21.101Z,7.33
2019-05-17T08:57:53.543Z,5.77
2019-05-17T09:00:25.929Z,6.53
2019-05-17T09:02:59.948Z,6.53
2019-05-17T09:05:30.991Z,9.30
2019-05-17T09:08:02.675Z,5.67
2019-05-17T09:10:34.223Z,5.37
2019-05-17T09:13:05.781Z,6.47
2019-05-17T09:15:39.905Z,7.10
2019-05-17T09:18:11.300Z,6.83
2019-05-17T09:20:42.689Z,5.33
2019-05-17T09:23:14.324Z,5.40
2019-05-17T09:25:46.584Z,5.53
2019-05-17T09:28:20.328Z,7.23
2019-05-17T09:30:51.617Z,6.90
2019-05-17T09:33:23.150Z,6.43
2019-05-17T09:35:54.534Z,6.40
2019-05-17T09:38:25.757Z,7.20
2019-05-17T09:40:59.719Z,9.13
2019-05-17T09:43:30.581Z,8.27
2019-05-17T09:46:02.404Z,9.10
2019-05-17T09:48:34.062Z,12.97
2019-05-17T09:51:05.566Z,8.40
2019-05-17T09:53:36.971Z,7.93
2019-05-17T09:56:09.920Z,8.30
2019-05-17T09:58:41.523Z,7.70
2019-05-17T10:01:12.978Z,7.93
2019-05-17T10:03:44.596Z,11.27
2019-05-17T10:06:16.170Z,7.53
2019-05-17T10:08:49.464Z,6.53
2019-05-17T10:11:21.296Z,6.97
2019-05-17T10:13:52.852Z,7.93
2019-05-17T10:16:24.981Z,8.73
2019-05-17T10:18:56.715Z,8.33
2019-05-17T10:21:30.385Z,6.53
2019-05-17T10:24:01.751Z,7.10
2019-05-17T10:26:33.259Z,7.90
2019-05-17T10:29:05.010Z,5.90
2019-05-17T10:31:36.432Z,5.87
2019-05-17T10:34:09.694Z,6.67
2019-05-17T10:36:41.445Z,10.87
2019-05-17T10:39:12.919Z,5.80
2019-05-17T10:41:44.141Z,7.77
2019-05-17T10:44:15.513Z,7.60
2019-05-17T10:46:46.853Z,8.27
2019-05-17T10:49:20.159Z,7.57
2019-05-17T10:51:51.296Z,8.57
2019-05-17T10:54:22.997Z,8.50
2019-05-17T10:56:54.606Z,10.73
2019-05-17T10:59:27.150Z,5.60
2019-05-17T11:01:59.670Z,9.23
2019-05-17T11:04:31.142Z,6.63
2019-05-17T11:07:04.250Z,5.73
2019-05-17T11:09:36.399Z,6.57
2019-05-17T11:12:08.114Z,5.47
2019-05-17T11:14:50.781Z,4.90
2019-05-17T11:17:12.813Z,5.60
2019-05-17T11:19:44.316Z,6.63
2019-05-17T11:22:15.912Z,4.67
2019-05-17T11:24:47.393Z,4.30
2019-05-17T11:27:18.737Z,4.27
2019-05-17T11:29:50.123Z,4.63
2019-05-17T11:32:22.787Z,5.77
2019-05-17T11:34:54.288Z,4.07
2019-05-17T11:37:25.619Z,6.90
2019-05-17T11:39:57.075Z,5.40
2019-05-17T11:42:28.429Z,5.77
2019-05-17T11:45:00.103Z,3.77
2019-05-17T11:47:31.673Z,4.93
2019-05-17T11:50:05.157Z,5.80
2019-05-17T11:52:36.442Z,8.00
2019-05-17T11:55:07.814Z,6.53
2019-05-17T11:57:39.140Z,5.00
2019-05-17T12:00:12.458Z,6.17
2019-05-17T12:02:43.734Z,6.33
2019-05-17T12:05:15.345Z,9.33
2019-05-17T12:07:46.816Z,5.40
2019-05-17T12:10:18.360Z,5.73
2019-05-17T12:12:49.806Z,5.80
2019-05-17T12:15:21.197Z,4.57
2019-05-17T12:17:52.426Z,6.70
2019-05-17T12:20:23.945Z,4.27
2019-05-17T12:22:55.393Z,9.33
2019-05-17T12:25:26.906Z,5.67
2019-05-17T12:27:58.206Z,5.90
2019-05-17T12:30:29.661Z,6.73
2019-05-17T12:33:01.175Z,6.30
2019-05-17T12:35:32.685Z,8.20
2019-05-17T12:38:04.329Z,7.37
2019-05-17T12:40:35.535Z,7.33
2019-05-17T12:43:06.917Z,6.80
2019-05-17T12:45:38.466Z,7.93
2019-05-17T12:48:09.772Z,6.50
2019-05-17T12:50:41.200Z,9.80
2019-05-17T12:53:13.712Z,5.73
2019-05-17T12:55:45.159Z,6.37
2019-05-17T12:58:16.483Z,5.97
2019-05-17T13:00:47.723Z,6.60
2019-05-17T13:03:19.110Z,5.43
2019-05-17T13:05:50.637Z,5.47
2019-05-17T13:08:23.053Z,9.15
2019-05-17T13:10:54.887Z,8.87
2019-05-17T13:13:26.261Z,6.57
2019-05-17T13:15:57.599Z,6.80
2019-05-17T13:18:28.801Z,6.07
2019-05-17T13:21:00.120Z,7.70
2019-05-17T13:23:31.443Z,7.07
2019-05-17T13:26:02.963Z,9.43
2019-05-17T13:28:34.349Z,6.87
2019-05-17T13:31:05.656Z,7.70
2019-05-17T13:33:37.140Z,8.57
2019-05-17T13:36:08.575Z,9.20
2019-05-17T13:38:40.144Z,13.67
2019-05-17T13:41:11.579Z,5.80
2019-05-17T13:43:42.964Z,4.97
2019-05-17T13:46:14.502Z,7.57
2019-05-17T13:48:45.821Z,3.47
2019-05-17T13:51:17.186Z,3.57
2019-05-17T13:53:48.477Z,5.70
2019-05-17T13:56:20.401Z,4.83
2019-05-17T13:58:51.936Z,6.57
2019-05-17T14:01:23.242Z,5.57
2019-05-17T14:03:54.527Z,4.73
2019-05-17T14:06:26.006Z,3.53
2019-05-17T14:08:57.208Z,4.43
2019-05-17T14:11:28.525Z,6.87
2019-05-17T14:14:00.009Z,5.23
2019-05-17T14:16:34.279Z,4.10
2019-05-17T14:19:04.392Z,7.70
2019-05-17T14:21:35.725Z,8.60
2019-05-17T14:24:07.182Z,4.80
2019-05-17T14:26:38.705Z,4.63
2019-05-17T14:29:10.112Z,3.43
2019-05-17T14:31:41.542Z,2.53
2019-05-17T14:34:12.948Z,4.27
2019-05-17T14:36:44.368Z,4.73
2019-05-17T14:39:15.768Z,6.80
2019-05-17T14:41:47.050Z,3.90
2019-05-17T14:44:18.403Z,3.23
2019-05-17T14:46:49.724Z,4.33
2019-05-17T14:49:21.116Z,5.13
2019-05-17T14:51:52.599Z,3.93
2019-05-17T14:54:23.965Z,4.67
2019-05-17T14:56:55.335Z,5.03
2019-05-17T14:59:26.633Z,7.13
2019-05-17T15:01:57.814Z,4.53
2019-05-17T15:04:29.169Z,6.40
2019-05-17T15:07:00.351Z,4.60
2019-05-17T15:09:31.694Z,5.47
2019-05-17T15:12:03.042Z,6.27
2019-05-17T15:14:34.290Z,5.87
2019-05-17T15:17:05.619Z,7.23
2019-05-17T15:19:37.071Z,6.73
2019-05-17T15:22:08.501Z,8.80
2019-05-17T15:24:40.050Z,4.17
2019-05-17T15:27:11.509Z,5.40
2019-05-17T15:29:55.997Z,4.87
2019-05-17T15:32:28.218Z,5.27
2019-05-17T15:34:59.968Z,5.13
2019-05-17T15:37:31.504Z,4.43
2019-05-17T15:40:06.244Z,4.90
2019-05-17T15:42:44.011Z,15.67
2019-05-17T15:45:10.876Z,4.47
2019-05-17T15:47:42.568Z,4.27
2019-05-17T15:50:14.405Z,8.90
2019-05-17T15:52:47.459Z,4.40
2019-05-17T15:55:18.877Z,4.37
2019-05-17T15:57:51.035Z,5.90
2019-05-17T16:00:22.574Z,7.87
2019-05-17T16:02:54.028Z,3.93
2019-05-17T16:05:26.558Z,6.00
2019-05-17T16:07:57.874Z,3.23
2019-05-17T16:10:29.338Z,5.57
2019-05-17T16:13:02.741Z,6.17
2019-05-17T16:15:34.021Z,5.03
2019-05-17T16:18:05.360Z,7.60
2019-05-17T16:20:36.639Z,3.83
2019-05-17T16:23:07.876Z,4.10
2019-05-17T16:25:39.773Z,9.47
2019-05-17T16:28:11.420Z,3.50
2019-05-17T16:30:42.887Z,4.57
2019-05-17T16:33:14.230Z,6.57
2019-05-17T16:35:45.647Z,5.87
2019-05-17T16:38:16.905Z,4.70
2019-05-17T16:40:48.548Z,4.80
2019-05-17T16:43:20.227Z,6.13
2019-05-17T16:45:52.062Z,9.93
2019-05-17T16:48:25.825Z,5.70
2019-05-17T16:50:57.119Z,3.93
2019-05-17T16:53:28.403Z,4.47
2019-05-17T16:56:00.789Z,3.87
2019-05-17T16:58:32.150Z,4.40
2019-05-17T17:01:03.868Z,3.97
2019-05-17T17:03:44.269Z,5.07
2019-05-17T17:06:10.473Z,4.33
2019-05-17T17:08:42.429Z,9.50
2019-05-17T17:11:13.900Z,15.13
2019-05-17T17:13:45.325Z,33.07
2019-05-17T17:16:16.770Z,21.07
2019-05-17T17:18:48.074Z,15.87
2019-05-17T17:21:19.458Z,8.57
2019-05-17T17:23:51.199Z,5.27
2019-05-17T17:26:22.885Z,5.57
2019-05-17T17:28:54.546Z,13.37
2019-05-17T17:31:25.974Z,7.50
2019-05-17T17:33:57.343Z,15.63
2019-05-17T17:36:28.943Z,20.57
2019-05-17T17:39:00.609Z,22.60
2019-05-17T17:41:32.250Z,15.63
2019-05-17T17:44:03.734Z,29.17
2019-05-17T17:46:35.295Z,33.33
2019-05-17T17:49:06.843Z,33.67
2019-05-17T17:51:38.281Z,44.80
2019-05-17T17:54:09.843Z,30.43
2019-05-17T17:56:41.500Z,10.07
2019-05-17T17:59:12.825Z,10.00
2019-05-17T18:01:44.608Z,10.73
2019-05-17T18:04:16.105Z,14.60
2019-05-17T18:06:47.300Z,12.40
2019-05-17T18:09:18.805Z,12.13
2019-05-17T18:11:50.819Z,13.90
2019-05-17T18:14:22.148Z,12.00
2019-05-17T18:16:53.505Z,9.27
2019-05-17T18:19:24.926Z,8.90
2019-05-17T18:21:56.534Z,7.77
2019-05-17T18:24:27.880Z,9.90
2019-05-17T18:26:59.585Z,9.47
2019-05-17T18:29:30.881Z,10.97
2019-05-17T18:32:02.054Z,10.87
2019-05-17T18:34:33.585Z,10.93
2019-05-17T18:37:06.094Z,22.03
2019-05-17T18:39:37.359Z,27.47
2019-05-17T18:42:09.107Z,26.87
2019-05-17T18:44:40.716Z,26.13
2019-05-17T18:47:12.064Z,22.90
2019-05-17T18:49:43.413Z,29.50
2019-05-17T18:52:14.642Z,28.17
2019-05-17T18:54:46.078Z,25.87
2019-05-17T18:57:17.543Z,26.03
2019-05-17T18:59:48.858Z,30.33
2019-05-17T19:02:20.276Z,21.83
2019-05-17T19:04:51.710Z,26.40
2019-05-17T19:07:23.377Z,22.67
2019-05-17T19:09:54.873Z,22.47
2019-05-17T19:12:27.663Z,25.63
2019-05-17T19:15:00.735Z,27.10
2019-05-17T19:17:32.078Z,28.47
2019-05-17T19:20:04.664Z,31.97
2019-05-17T19:22:35.948Z,22.27
2019-05-17T19:25:07.897Z,25.40
2019-05-17T19:27:39.414Z,20.53
2019-05-17T19:30:11.583Z,25.07
2019-05-17T19:32:43.197Z,27.63
2019-05-17T19:35:15.169Z,26.67
2019-05-17T19:37:46.414Z,36.20
2019-05-17T19:40:17.615Z,37.60
2019-05-17T19:42:49.011Z,31.30
2019-05-17T19:45:20.200Z,30.90
2019-05-17T19:47:51.768Z,39.83
2019-05-17T19:50:23.314Z,224.40
2019-05-17T19:52:54.817Z,93.30
2019-05-17T19:55:26.438Z,52.03
2019-05-17T19:57:57.875Z,93.73
2019-05-17T20:00:29.813Z,54.43
2019-05-17T20:03:01.574Z,58.13
2019-05-17T20:05:32.971Z,95.67
2019-05-17T20:08:04.488Z,122.23
2019-05-17T20:10:35.941Z,77.60
2019-05-17T20:13:07.288Z,81.90
2019-05-17T20:15:38.901Z,78.50
2019-05-17T20:18:10.316Z,55.33
2019-05-17T20:20:42.312Z,49.57
2019-05-17T20:23:14.359Z,61.43
2019-05-17T20:25:45.733Z,44.13
2019-05-17T20:28:17.229Z,39.57
2019-05-17T20:30:48.824Z,59.03
2019-05-17T20:33:20.147Z,52.00
2019-05-17T20:35:51.699Z,55.37
2019-05-17T20:38:23.412Z,89.13
2019-05-17T20:40:54.874Z,93.10
2019-05-17T20:43:26.344Z,58.90
2019-05-17T20:45:58.094Z,50.93
2019-05-17T20:48:29.358Z,47.40
2019-05-17T20:51:00.721Z,38.93
2019-05-17T20:53:32.509Z,39.23
2019-05-17T20:56:03.795Z,27.90
2019-05-17T20:58:35.629Z,36.27
2019-05-17T21:01:07.140Z,33.80
2019-05-17T21:03:38.524Z,29.47
2019-05-17T21:06:09.838Z,28.83
2019-05-17T21:08:45.995Z,27.33
2019-05-17T21:11:14.540Z,27.90
2019-05-17T21:13:46.194Z,26.40
2019-05-17T21:16:18.786Z,24.07
2019-05-17T21:18:50.541Z,29.63
2019-05-17T21:21:21.888Z,25.53
2019-05-17T21:23:53.520Z,28.63
2019-05-17T21:26:25.144Z,24.97
2019-05-17T21:28:56.725Z,21.30
2019-05-17T21:31:28.048Z,23.23
2019-05-17T21:33:59.548Z,25.30
2019-05-17T21:36:30.809Z,32.03
2019-05-17T21:39:04.029Z,29.60
2019-05-17T21:41:35.693Z,23.13
2019-05-17T21:44:07.253Z,21.60
2019-05-17T21:46:38.661Z,22.40
2019-05-17T21:49:10.450Z,23.40
2019-05-17T21:51:42.007Z,23.53
2019-05-17T21:54:13.462Z,21.03
2019-05-17T21:56:45.195Z,24.63
2019-05-17T21:59:16.821Z,24.20
2019-05-17T22:01:49.580Z,26.27
2019-05-17T22:04:20.939Z,21.27
2019-05-17T22:06:52.626Z,20.33
2019-05-17T22:09:24.283Z,21.17
2019-05-17T22:11:58.520Z,22.50
2019-05-17T22:14:30.008Z,32.77
2019-05-17T22:17:01.861Z,27.30
2019-05-17T22:19:33.557Z,23.70
2019-05-17T22:22:04.891Z,22.13
2019-05-17T22:24:36.298Z,25.63
2019-05-17T22:27:08.041Z,25.43
2019-05-17T22:29:39.526Z,26.37
2019-05-17T22:32:11.085Z,25.83
2019-05-17T22:34:42.545Z,23.90
2019-05-17T22:37:17.014Z,26.43
2019-05-17T22:39:47.477Z,25.97
2019-05-17T22:42:19.113Z,23.20
2019-05-17T22:44:50.661Z,26.07
2019-05-17T22:47:23.194Z,23.80
2019-05-17T22:49:54.669Z,22.30
2019-05-17T22:52:26.198Z,26.47
2019-05-17T22:54:57.510Z,27.40
2019-05-17T22:57:28.934Z,26.83
2019-05-17T23:00:00.249Z,24.03
2019-05-17T23:02:31.582Z,25.13
2019-05-17T23:05:03.786Z,27.63
2019-05-17T23:07:35.492Z,25.50
2019-05-17T23:10:07.034Z,27.77
2019-05-17T23:12:38.439Z,31.03
2019-05-17T23:15:09.816Z,27.70
2019-05-17T23:17:41.078Z,26.93
2019-05-17T23:20:12.677Z,29.53
2019-05-17T23:22:44.074Z,32.60
2019-05-17T23:25:15.599Z,29.37
2019-05-17T23:27:47.703Z,28.23
2019-05-17T23:30:19.021Z,27.70
2019-05-17T23:32:50.335Z,26.17
2019-05-17T23:35:21.746Z,29.07
2019-05-17T23:37:53.121Z,29.13
2019-05-17T23:40:24.684Z,22.97
2019-05-17T23:42:56.161Z,23.80
2019-05-17T23:45:27.724Z,27.17
2019-05-17T23:47:59.269Z,24.13
2019-05-17T23:50:30.567Z,25.90
2019-05-17T23:53:02.132Z,24.43
2019-05-17T23:55:33.544Z,26.30
2019-05-17T23:58:05.049Z,21.50
